sensor_id;sensor_type;location;lat;lon;timestamp;P1;durP1;ratioP1;P2;durP2;ratioP2
54121;SDS011;40029;58.708;50.190;2024-01-30T00:00:24;11.80;;;5.50;;
54121;SDS011;40029;58.708;50.190;2024-01-30T00:03:13;13.23;;;4.75;;
54121;SDS011;40029;58.708;50.190;2024-01-30T00:05:45;11.25;;;5.10;;
54121;SDS011;40029;58.708;50.190;2024-01-30T00:08:16;12.75;;;5.18;;
54121;SDS011;40029;58.708;50.190;2024-01-30T00:10:47;16.30;;;5.85;;
54121;SDS011;40029;58.708;50.190;2024-01-30T00:13:18;15.80;;;5.40;;
54121;SDS011;40029;58.708;50.190;2024-01-30T00:15:50;10.73;;;4.75;;
54121;SDS011;40029;58.708;50.190;2024-01-30T00:18:22;12.73;;;4.70;;
54121;SDS011;40029;58.708;50.190;2024-01-30T00:20:53;10.02;;;4.43;;
54121;SDS011;40029;58.708;50.190;2024-01-30T00:23:24;13.80;;;4.13;;
54121;SDS011;40029;58.708;50.190;2024-01-30T00:25:55;11.02;;;3.85;;
54121;SDS011;40029;58.708;50.190;2024-01-30T00:28:27;10.30;;;4.55;;
54121;SDS011;40029;58.708;50.190;2024-01-30T00:30:58;9.88;;;4.07;;
54121;SDS011;40029;58.708;50.190;2024-01-30T00:33:29;10.05;;;4.20;;
54121;SDS011;40029;58.708;50.190;2024-01-30T00:36:01;9.55;;;3.80;;
54121;SDS011;40029;58.708;50.190;2024-01-30T00:38:32;8.90;;;3.95;;
54121;SDS011;40029;58.708;50.190;2024-01-30T00:41:03;10.27;;;4.13;;
54121;SDS011;40029;58.708;50.190;2024-01-30T00:43:35;9.65;;;4.45;;
54121;SDS011;40029;58.708;50.190;2024-01-30T00:46:25;8.43;;;4.53;;
54121;SDS011;40029;58.708;50.190;2024-01-30T00:48:57;9.20;;;3.85;;
54121;SDS011;40029;58.708;50.190;2024-01-30T00:51:28;11.98;;;4.03;;
54121;SDS011;40029;58.708;50.190;2024-01-30T00:54:00;9.32;;;4.18;;
54121;SDS011;40029;58.708;50.190;2024-01-30T00:56:31;14.10;;;4.93;;
54121;SDS011;40029;58.708;50.190;2024-01-30T00:59:03;11.85;;;4.95;;
54121;SDS011;40029;58.708;50.190;2024-01-30T01:01:34;12.10;;;4.32;;
54121;SDS011;40029;58.708;50.190;2024-01-30T01:04:05;10.38;;;4.30;;
54121;SDS011;40029;58.708;50.190;2024-01-30T01:06:38;7.80;;;3.90;;
54121;SDS011;40029;58.708;50.190;2024-01-30T01:09:09;11.75;;;4.28;;
54121;SDS011;40029;58.708;50.190;2024-01-30T01:12:01;7.55;;;4.50;;
54121;SDS011;40029;58.708;50.190;2024-01-30T01:14:32;6.75;;;3.88;;
54121;SDS011;40029;58.708;50.190;2024-01-30T01:17:03;8.93;;;4.07;;
54121;SDS011;40029;58.708;50.190;2024-01-30T01:19:35;10.35;;;3.67;;
54121;SDS011;40029;58.708;50.190;2024-01-30T01:22:07;9.50;;;4.10;;
54121;SDS011;40029;58.708;50.190;2024-01-30T01:24:39;10.38;;;3.70;;
54121;SDS011;40029;58.708;50.190;2024-01-30T01:27:10;10.55;;;5.03;;
54121;SDS011;40029;58.708;50.190;2024-01-30T01:30:00;11.45;;;4.13;;
54121;SDS011;40029;58.708;50.190;2024-01-30T01:32:50;12.40;;;5.05;;
54121;SDS011;40029;58.708;50.190;2024-01-30T01:35:26;10.52;;;4.78;;
54121;SDS011;40029;58.708;50.190;2024-01-30T01:37:57;9.75;;;5.15;;
54121;SDS011;40029;58.708;50.190;2024-01-30T01:40:49;8.57;;;4.30;;
54121;SDS011;40029;58.708;50.190;2024-01-30T01:43:38;11.32;;;4.72;;
54121;SDS011;40029;58.708;50.190;2024-01-30T01:46:10;9.65;;;4.00;;
54121;SDS011;40029;58.708;50.190;2024-01-30T01:48:41;8.57;;;4.13;;
54121;SDS011;40029;58.708;50.190;2024-01-30T01:51:14;9.13;;;4.05;;
54121;SDS011;40029;58.708;50.190;2024-01-30T01:53:46;12.32;;;4.13;;
54121;SDS011;40029;58.708;50.190;2024-01-30T01:56:17;10.57;;;4.50;;
54121;SDS011;40029;58.708;50.190;2024-01-30T01:58:49;12.88;;;4.63;;
54121;SDS011;40029;58.708;50.190;2024-01-30T02:01:22;9.18;;;4.15;;
54121;SDS011;40029;58.708;50.190;2024-01-30T02:03:55;10.40;;;4.60;;
54121;SDS011;40029;58.708;50.190;2024-01-30T02:06:26;10.45;;;4.45;;
54121;SDS011;40029;58.708;50.190;2024-01-30T02:09:16;11.40;;;4.68;;
54121;SDS011;40029;58.708;50.190;2024-01-30T02:11:47;7.55;;;4.15;;
54121;SDS011;40029;58.708;50.190;2024-01-30T02:14:20;9.13;;;4.70;;
54121;SDS011;40029;58.708;50.190;2024-01-30T02:16:51;11.88;;;5.20;;
54121;SDS011;40029;58.708;50.190;2024-01-30T02:19:22;15.73;;;5.05;;
54121;SDS011;40029;58.708;50.190;2024-01-30T02:21:53;11.38;;;4.43;;
54121;SDS011;40029;58.708;50.190;2024-01-30T02:24:25;13.25;;;5.78;;
54121;SDS011;40029;58.708;50.190;2024-01-30T02:27:14;13.18;;;4.78;;
54121;SDS011;40029;58.708;50.190;2024-01-30T02:29:46;12.45;;;5.72;;
54121;SDS011;40029;58.708;50.190;2024-01-30T02:32:17;8.13;;;4.28;;
54121;SDS011;40029;58.708;50.190;2024-01-30T02:34:48;8.85;;;4.80;;
54121;SDS011;40029;58.708;50.190;2024-01-30T02:37:19;12.32;;;4.60;;
54121;SDS011;40029;58.708;50.190;2024-01-30T02:39:50;10.23;;;5.40;;
54121;SDS011;40029;58.708;50.190;2024-01-30T02:42:40;11.10;;;4.60;;
54121;SDS011;40029;58.708;50.190;2024-01-30T02:45:30;8.70;;;4.30;;
54121;SDS011;40029;58.708;50.190;2024-01-30T02:48:01;10.40;;;4.30;;
54121;SDS011;40029;58.708;50.190;2024-01-30T02:50:32;11.93;;;5.35;;
54121;SDS011;40029;58.708;50.190;2024-01-30T02:53:03;10.15;;;4.88;;
54121;SDS011;40029;58.708;50.190;2024-01-30T02:55:35;12.85;;;4.88;;
54121;SDS011;40029;58.708;50.190;2024-01-30T02:58:24;13.07;;;4.82;;
54121;SDS011;40029;58.708;50.190;2024-01-30T03:00:55;10.52;;;5.18;;
54121;SDS011;40029;58.708;50.190;2024-01-30T03:03:45;16.02;;;5.90;;
54121;SDS011;40029;58.708;50.190;2024-01-30T03:06:16;12.70;;;4.85;;
54121;SDS011;40029;58.708;50.190;2024-01-30T03:08:48;11.15;;;4.80;;
54121;SDS011;40029;58.708;50.190;2024-01-30T03:11:19;10.27;;;4.93;;
54121;SDS011;40029;58.708;50.190;2024-01-30T03:13:50;9.02;;;5.13;;
54121;SDS011;40029;58.708;50.190;2024-01-30T03:16:22;15.85;;;5.07;;
54121;SDS011;40029;58.708;50.190;2024-01-30T03:18:53;12.57;;;5.63;;
54121;SDS011;40029;58.708;50.190;2024-01-30T03:21:24;17.25;;;6.82;;
54121;SDS011;40029;58.708;50.190;2024-01-30T03:23:55;14.38;;;6.22;;
54121;SDS011;40029;58.708;50.190;2024-01-30T03:26:27;18.30;;;8.35;;
54121;SDS011;40029;58.708;50.190;2024-01-30T03:28:58;13.70;;;6.25;;
54121;SDS011;40029;58.708;50.190;2024-01-30T03:31:29;20.50;;;8.18;;
54121;SDS011;40029;58.708;50.190;2024-01-30T03:34:00;23.70;;;8.95;;
54121;SDS011;40029;58.708;50.190;2024-01-30T03:36:32;54.53;;;14.20;;
54121;SDS011;40029;58.708;50.190;2024-01-30T03:39:05;34.40;;;10.75;;
54121;SDS011;40029;58.708;50.190;2024-01-30T03:41:36;20.88;;;8.50;;
54121;SDS011;40029;58.708;50.190;2024-01-30T03:44:07;13.90;;;4.97;;
54121;SDS011;40029;58.708;50.190;2024-01-30T03:46:39;16.67;;;6.15;;
54121;SDS011;40029;58.708;50.190;2024-01-30T03:49:10;22.05;;;7.65;;
54121;SDS011;40029;58.708;50.190;2024-01-30T03:51:41;91.28;;;17.85;;
54121;SDS011;40029;58.708;50.190;2024-01-30T03:54:12;89.82;;;16.85;;
54121;SDS011;40029;58.708;50.190;2024-01-30T03:56:44;77.63;;;13.55;;
54121;SDS011;40029;58.708;50.190;2024-01-30T03:59:15;77.53;;;14.05;;
54121;SDS011;40029;58.708;50.190;2024-01-30T04:01:47;45.47;;;11.95;;
54121;SDS011;40029;58.708;50.190;2024-01-30T04:04:36;69.88;;;14.98;;
54121;SDS011;40029;58.708;50.190;2024-01-30T04:07:07;40.83;;;10.98;;
54121;SDS011;40029;58.708;50.190;2024-01-30T04:09:38;35.42;;;10.35;;
54121;SDS011;40029;58.708;50.190;2024-01-30T04:12:10;30.63;;;8.27;;
54121;SDS011;40029;58.708;50.190;2024-01-30T04:14:41;44.17;;;12.02;;
54121;SDS011;40029;58.708;50.190;2024-01-30T04:17:30;18.92;;;6.78;;
54121;SDS011;40029;58.708;50.190;2024-01-30T04:20:02;21.05;;;9.60;;
54121;SDS011;40029;58.708;50.190;2024-01-30T04:22:35;21.15;;;8.23;;
54121;SDS011;40029;58.708;50.190;2024-01-30T04:25:06;14.73;;;6.80;;
54121;SDS011;40029;58.708;50.190;2024-01-30T04:27:37;19.92;;;8.05;;
54121;SDS011;40029;58.708;50.190;2024-01-30T04:30:09;32.75;;;10.90;;
54121;SDS011;40029;58.708;50.190;2024-01-30T04:32:41;19.88;;;8.60;;
54121;SDS011;40029;58.708;50.190;2024-01-30T04:35:13;25.00;;;7.70;;
54121;SDS011;40029;58.708;50.190;2024-01-30T04:37:45;18.45;;;8.35;;
54121;SDS011;40029;58.708;50.190;2024-01-30T04:40:17;24.05;;;9.65;;
54121;SDS011;40029;58.708;50.190;2024-01-30T04:42:49;28.63;;;9.73;;
54121;SDS011;40029;58.708;50.190;2024-01-30T04:45:20;22.10;;;8.30;;
54121;SDS011;40029;58.708;50.190;2024-01-30T04:47:52;41.05;;;13.48;;
54121;SDS011;40029;58.708;50.190;2024-01-30T04:50:23;19.38;;;7.07;;
54121;SDS011;40029;58.708;50.190;2024-01-30T04:52:54;20.92;;;7.72;;
54121;SDS011;40029;58.708;50.190;2024-01-30T04:55:25;17.08;;;8.45;;
54121;SDS011;40029;58.708;50.190;2024-01-30T04:57:56;25.77;;;9.52;;
54121;SDS011;40029;58.708;50.190;2024-01-30T05:00:28;23.30;;;9.15;;
54121;SDS011;40029;58.708;50.190;2024-01-30T05:02:59;19.08;;;8.85;;
54121;SDS011;40029;58.708;50.190;2024-01-30T05:05:30;16.50;;;8.10;;
54121;SDS011;40029;58.708;50.190;2024-01-30T05:08:01;14.57;;;6.72;;
54121;SDS011;40029;58.708;50.190;2024-01-30T05:10:32;14.77;;;5.55;;
54121;SDS011;40029;58.708;50.190;2024-01-30T05:13:03;33.10;;;10.52;;
54121;SDS011;40029;58.708;50.190;2024-01-30T05:15:34;32.55;;;10.95;;
54121;SDS011;40029;58.708;50.190;2024-01-30T05:18:05;25.10;;;9.95;;
54121;SDS011;40029;58.708;50.190;2024-01-30T05:20:37;14.18;;;5.25;;
54121;SDS011;40029;58.708;50.190;2024-01-30T05:23:08;19.05;;;7.28;;
54121;SDS011;40029;58.708;50.190;2024-01-30T05:25:39;22.48;;;7.93;;
54121;SDS011;40029;58.708;50.190;2024-01-30T05:28:10;21.33;;;8.30;;
54121;SDS011;40029;58.708;50.190;2024-01-30T05:30:41;18.83;;;6.70;;
54121;SDS011;40029;58.708;50.190;2024-01-30T05:33:13;17.40;;;6.15;;
54121;SDS011;40029;58.708;50.190;2024-01-30T05:35:44;22.25;;;8.93;;
54121;SDS011;40029;58.708;50.190;2024-01-30T05:38:16;23.85;;;10.32;;
54121;SDS011;40029;58.708;50.190;2024-01-30T05:40:47;24.25;;;9.35;;
54121;SDS011;40029;58.708;50.190;2024-01-30T05:43:37;15.57;;;6.65;;
54121;SDS011;40029;58.708;50.190;2024-01-30T05:46:08;18.10;;;7.15;;
54121;SDS011;40029;58.708;50.190;2024-01-30T05:48:58;22.17;;;7.28;;
54121;SDS011;40029;58.708;50.190;2024-01-30T05:51:29;16.35;;;8.30;;
54121;SDS011;40029;58.708;50.190;2024-01-30T05:54:19;30.75;;;12.60;;
54121;SDS011;40029;58.708;50.190;2024-01-30T05:56:50;20.83;;;8.02;;
54121;SDS011;40029;58.708;50.190;2024-01-30T05:59:21;25.70;;;9.70;;
54121;SDS011;40029;58.708;50.190;2024-01-30T06:01:53;29.13;;;10.18;;
54121;SDS011;40029;58.708;50.190;2024-01-30T06:04:43;20.83;;;8.07;;
54121;SDS011;40029;58.708;50.190;2024-01-30T06:07:15;22.02;;;8.43;;
54121;SDS011;40029;58.708;50.190;2024-01-30T06:09:46;20.85;;;8.32;;
54121;SDS011;40029;58.708;50.190;2024-01-30T06:12:17;30.38;;;10.38;;
54121;SDS011;40029;58.708;50.190;2024-01-30T06:15:07;36.83;;;12.25;;
54121;SDS011;40029;58.708;50.190;2024-01-30T06:17:38;23.15;;;9.10;;
54121;SDS011;40029;58.708;50.190;2024-01-30T06:20:10;20.90;;;8.52;;
54121;SDS011;40029;58.708;50.190;2024-01-30T06:22:41;28.63;;;11.15;;
54121;SDS011;40029;58.708;50.190;2024-01-30T06:25:12;32.40;;;11.65;;
54121;SDS011;40029;58.708;50.190;2024-01-30T06:27:43;26.45;;;9.02;;
54121;SDS011;40029;58.708;50.190;2024-01-30T06:30:15;19.05;;;7.57;;
54121;SDS011;40029;58.708;50.190;2024-01-30T06:32:46;40.03;;;12.45;;
54121;SDS011;40029;58.708;50.190;2024-01-30T06:35:17;17.08;;;6.25;;
54121;SDS011;40029;58.708;50.190;2024-01-30T06:37:49;14.85;;;7.50;;
54121;SDS011;40029;58.708;50.190;2024-01-30T06:40:20;19.35;;;7.40;;
54121;SDS011;40029;58.708;50.190;2024-01-30T06:43:10;13.95;;;5.72;;
54121;SDS011;40029;58.708;50.190;2024-01-30T06:45:41;15.57;;;6.50;;
54121;SDS011;40029;58.708;50.190;2024-01-30T06:48:32;19.85;;;7.93;;
54121;SDS011;40029;58.708;50.190;2024-01-30T06:51:03;22.63;;;7.75;;
54121;SDS011;40029;58.708;50.190;2024-01-30T06:53:52;18.23;;;7.03;;
54121;SDS011;40029;58.708;50.190;2024-01-30T06:56:24;13.07;;;5.68;;
54121;SDS011;40029;58.708;50.190;2024-01-30T06:58:56;15.88;;;6.72;;
54121;SDS011;40029;58.708;50.190;2024-01-30T07:01:29;16.25;;;4.55;;
54121;SDS011;40029;58.708;50.190;2024-01-30T07:04:00;16.40;;;6.97;;
54121;SDS011;40029;58.708;50.190;2024-01-30T07:06:31;21.42;;;6.55;;
54121;SDS011;40029;58.708;50.190;2024-01-30T07:09:03;16.40;;;6.55;;
54121;SDS011;40029;58.708;50.190;2024-01-30T07:11:34;14.85;;;6.57;;
54121;SDS011;40029;58.708;50.190;2024-01-30T07:14:05;12.93;;;5.55;;
54121;SDS011;40029;58.708;50.190;2024-01-30T07:16:36;12.45;;;6.10;;
54121;SDS011;40029;58.708;50.190;2024-01-30T07:19:07;11.00;;;4.57;;
54121;SDS011;40029;58.708;50.190;2024-01-30T07:21:58;6.93;;;3.88;;
54121;SDS011;40029;58.708;50.190;2024-01-30T07:24:29;10.23;;;4.53;;
54121;SDS011;40029;58.708;50.190;2024-01-30T07:27:01;18.85;;;5.60;;
54121;SDS011;40029;58.708;50.190;2024-01-30T07:29:32;12.02;;;4.93;;
54121;SDS011;40029;58.708;50.190;2024-01-30T07:32:03;9.45;;;3.80;;
54121;SDS011;40029;58.708;50.190;2024-01-30T07:34:34;15.52;;;6.53;;
54121;SDS011;40029;58.708;50.190;2024-01-30T07:37:06;10.40;;;5.18;;
54121;SDS011;40029;58.708;50.190;2024-01-30T07:39:39;11.68;;;4.63;;
54121;SDS011;40029;58.708;50.190;2024-01-30T07:42:10;14.18;;;6.30;;
54121;SDS011;40029;58.708;50.190;2024-01-30T07:44:41;11.05;;;4.97;;
54121;SDS011;40029;58.708;50.190;2024-01-30T07:47:12;14.55;;;5.15;;
54121;SDS011;40029;58.708;50.190;2024-01-30T07:49:43;7.65;;;4.38;;
54121;SDS011;40029;58.708;50.190;2024-01-30T07:52:14;7.85;;;3.72;;
54121;SDS011;40029;58.708;50.190;2024-01-30T07:54:45;7.60;;;3.55;;
54121;SDS011;40029;58.708;50.190;2024-01-30T07:57:17;8.57;;;4.38;;
54121;SDS011;40029;58.708;50.190;2024-01-30T07:59:48;12.63;;;4.85;;
54121;SDS011;40029;58.708;50.190;2024-01-30T08:02:19;8.82;;;3.92;;
54121;SDS011;40029;58.708;50.190;2024-01-30T08:04:51;9.50;;;3.45;;
54121;SDS011;40029;58.708;50.190;2024-01-30T08:07:41;8.18;;;4.18;;
54121;SDS011;40029;58.708;50.190;2024-01-30T08:10:16;8.77;;;3.42;;
54121;SDS011;40029;58.708;50.190;2024-01-30T08:12:50;7.67;;;3.40;;
54121;SDS011;40029;58.708;50.190;2024-01-30T08:15:21;8.73;;;3.90;;
54121;SDS011;40029;58.708;50.190;2024-01-30T08:17:52;7.03;;;3.20;;
54121;SDS011;40029;58.708;50.190;2024-01-30T08:20:29;7.40;;;4.50;;
54121;SDS011;40029;58.708;50.190;2024-01-30T08:23:00;8.45;;;3.58;;
54121;SDS011;40029;58.708;50.190;2024-01-30T08:25:31;10.70;;;3.67;;
54121;SDS011;40029;58.708;50.190;2024-01-30T08:28:03;7.90;;;4.22;;
54121;SDS011;40029;58.708;50.190;2024-01-30T08:30:34;6.07;;;2.60;;
54121;SDS011;40029;58.708;50.190;2024-01-30T08:33:06;13.27;;;4.50;;
54121;SDS011;40029;58.708;50.190;2024-01-30T08:35:37;13.60;;;5.30;;
54121;SDS011;40029;58.708;50.190;2024-01-30T08:38:27;8.05;;;4.00;;
54121;SDS011;40029;58.708;50.190;2024-01-30T08:40:58;19.48;;;5.65;;
54121;SDS011;40029;58.708;50.190;2024-01-30T08:43:29;10.90;;;4.05;;
54121;SDS011;40029;58.708;50.190;2024-01-30T08:46:00;9.00;;;3.67;;
54121;SDS011;40029;58.708;50.190;2024-01-30T08:48:50;11.15;;;4.50;;
54121;SDS011;40029;58.708;50.190;2024-01-30T08:51:21;7.57;;;3.42;;
54121;SDS011;40029;58.708;50.190;2024-01-30T08:53:52;15.13;;;5.45;;
54121;SDS011;40029;58.708;50.190;2024-01-30T08:56:24;8.52;;;3.78;;
54121;SDS011;40029;58.708;50.190;2024-01-30T08:58:55;7.60;;;3.53;;
54121;SDS011;40029;58.708;50.190;2024-01-30T09:01:26;8.32;;;3.75;;
54121;SDS011;40029;58.708;50.190;2024-01-30T09:04:16;15.00;;;4.65;;
54121;SDS011;40029;58.708;50.190;2024-01-30T09:06:48;6.65;;;3.15;;
54121;SDS011;40029;58.708;50.190;2024-01-30T09:09:19;9.65;;;4.22;;
54121;SDS011;40029;58.708;50.190;2024-01-30T09:11:51;9.82;;;4.88;;
54121;SDS011;40029;58.708;50.190;2024-01-30T09:14:22;14.52;;;5.72;;
54121;SDS011;40029;58.708;50.190;2024-01-30T09:16:53;12.85;;;6.57;;
54121;SDS011;40029;58.708;50.190;2024-01-30T09:19:24;17.10;;;7.90;;
54121;SDS011;40029;58.708;50.190;2024-01-30T09:21:55;13.00;;;5.45;;
54121;SDS011;40029;58.708;50.190;2024-01-30T09:24:27;10.05;;;4.15;;
54121;SDS011;40029;58.708;50.190;2024-01-30T09:26:58;9.88;;;5.13;;
54121;SDS011;40029;58.708;50.190;2024-01-30T09:29:29;12.07;;;6.35;;
54121;SDS011;40029;58.708;50.190;2024-01-30T09:32:00;10.15;;;5.65;;
54121;SDS011;40029;58.708;50.190;2024-01-30T09:34:31;10.68;;;3.97;;
54121;SDS011;40029;58.708;50.190;2024-01-30T09:37:03;17.10;;;6.70;;
54121;SDS011;40029;58.708;50.190;2024-01-30T09:39:52;41.40;;;12.15;;
54121;SDS011;40029;58.708;50.190;2024-01-30T09:45:13;10.45;;;3.75;;
54121;SDS011;40029;58.708;50.190;2024-01-30T09:47:45;35.83;;;10.68;;
54121;SDS011;40029;58.708;50.190;2024-01-30T09:50:17;26.33;;;10.32;;
54121;SDS011;40029;58.708;50.190;2024-01-30T09:52:49;13.48;;;4.88;;
54121;SDS011;40029;58.708;50.190;2024-01-30T09:55:24;6.55;;;3.75;;
54121;SDS011;40029;58.708;50.190;2024-01-30T09:57:55;10.95;;;4.07;;
54121;SDS011;40029;58.708;50.190;2024-01-30T10:00:26;6.45;;;3.35;;
54121;SDS011;40029;58.708;50.190;2024-01-30T10:02:58;10.77;;;5.25;;
54121;SDS011;40029;58.708;50.190;2024-01-30T10:05:29;18.27;;;7.85;;
54121;SDS011;40029;58.708;50.190;2024-01-30T10:08:22;8.20;;;4.50;;
54121;SDS011;40029;58.708;50.190;2024-01-30T10:11:12;13.18;;;5.85;;
54121;SDS011;40029;58.708;50.190;2024-01-30T10:13:43;14.25;;;5.40;;
54121;SDS011;40029;58.708;50.190;2024-01-30T10:16:14;6.13;;;3.63;;
54121;SDS011;40029;58.708;50.190;2024-01-30T10:18:47;7.28;;;3.80;;
54121;SDS011;40029;58.708;50.190;2024-01-30T10:21:18;7.93;;;4.85;;
54121;SDS011;40029;58.708;50.190;2024-01-30T10:23:49;9.73;;;4.82;;
54121;SDS011;40029;58.708;50.190;2024-01-30T10:26:21;11.30;;;4.63;;
54121;SDS011;40029;58.708;50.190;2024-01-30T10:28:52;11.60;;;4.68;;
54121;SDS011;40029;58.708;50.190;2024-01-30T10:31:23;4.35;;;2.15;;
54121;SDS011;40029;58.708;50.190;2024-01-30T10:33:54;10.18;;;4.50;;
54121;SDS011;40029;58.708;50.190;2024-01-30T10:36:28;20.35;;;7.45;;
54121;SDS011;40029;58.708;50.190;2024-01-30T10:39:02;7.32;;;3.47;;
54121;SDS011;40029;58.708;50.190;2024-01-30T10:41:39;8.20;;;3.65;;
54121;SDS011;40029;58.708;50.190;2024-01-30T10:44:16;5.68;;;2.53;;
54121;SDS011;40029;58.708;50.190;2024-01-30T10:46:51;12.20;;;4.40;;
54121;SDS011;40029;58.708;50.190;2024-01-30T10:49:31;5.97;;;2.65;;
54121;SDS011;40029;58.708;50.190;2024-01-30T10:52:03;6.95;;;2.80;;
54121;SDS011;40029;58.708;50.190;2024-01-30T10:54:36;17.00;;;5.65;;
54121;SDS011;40029;58.708;50.190;2024-01-30T10:57:26;21.15;;;7.47;;
54121;SDS011;40029;58.708;50.190;2024-01-30T10:59:58;11.48;;;4.00;;
54121;SDS011;40029;58.708;50.190;2024-01-30T11:02:31;20.85;;;7.50;;
54121;SDS011;40029;58.708;50.190;2024-01-30T11:05:04;25.20;;;8.93;;
54121;SDS011;40029;58.708;50.190;2024-01-30T11:07:36;12.00;;;3.50;;
54121;SDS011;40029;58.708;50.190;2024-01-30T11:10:09;4.68;;;2.72;;
54121;SDS011;40029;58.708;50.190;2024-01-30T11:12:45;14.23;;;2.72;;
54121;SDS011;40029;58.708;50.190;2024-01-30T11:15:18;8.52;;;2.97;;
54121;SDS011;40029;58.708;50.190;2024-01-30T11:18:08;12.48;;;4.45;;
54121;SDS011;40029;58.708;50.190;2024-01-30T11:20:39;15.82;;;4.50;;
54121;SDS011;40029;58.708;50.190;2024-01-30T11:23:17;13.02;;;4.72;;
54121;SDS011;40029;58.708;50.190;2024-01-30T11:25:48;10.13;;;4.97;;
54121;SDS011;40029;58.708;50.190;2024-01-30T11:28:22;12.63;;;4.60;;
54121;SDS011;40029;58.708;50.190;2024-01-30T11:31:02;20.35;;;6.57;;
54121;SDS011;40029;58.708;50.190;2024-01-30T11:33:52;14.43;;;4.30;;
54121;SDS011;40029;58.708;50.190;2024-01-30T11:36:25;15.65;;;4.43;;
54121;SDS011;40029;58.708;50.190;2024-01-30T11:38:59;14.63;;;4.40;;
54121;SDS011;40029;58.708;50.190;2024-01-30T11:41:31;15.73;;;5.68;;
54121;SDS011;40029;58.708;50.190;2024-01-30T11:44:03;14.32;;;4.45;;
54121;SDS011;40029;58.708;50.190;2024-01-30T11:46:34;16.42;;;4.63;;
54121;SDS011;40029;58.708;50.190;2024-01-30T11:49:24;10.88;;;4.10;;
54121;SDS011;40029;58.708;50.190;2024-01-30T11:51:55;11.63;;;5.80;;
54121;SDS011;40029;58.708;50.190;2024-01-30T11:54:45;18.65;;;6.22;;
54121;SDS011;40029;58.708;50.190;2024-01-30T11:57:16;6.75;;;2.65;;
54121;SDS011;40029;58.708;50.190;2024-01-30T11:59:47;11.02;;;3.90;;
54121;SDS011;40029;58.708;50.190;2024-01-30T12:02:18;10.75;;;2.83;;
54121;SDS011;40029;58.708;50.190;2024-01-30T12:04:50;6.15;;;1.98;;
54121;SDS011;40029;58.708;50.190;2024-01-30T12:07:21;11.95;;;2.53;;
54121;SDS011;40029;58.708;50.190;2024-01-30T12:10:10;4.35;;;2.30;;
54121;SDS011;40029;58.708;50.190;2024-01-30T12:12:42;6.22;;;3.13;;
54121;SDS011;40029;58.708;50.190;2024-01-30T12:15:15;7.15;;;3.03;;
54121;SDS011;40029;58.708;50.190;2024-01-30T12:18:05;12.00;;;3.28;;
54121;SDS011;40029;58.708;50.190;2024-01-30T12:20:37;7.13;;;1.95;;
54121;SDS011;40029;58.708;50.190;2024-01-30T12:23:08;6.70;;;2.92;;
54121;SDS011;40029;58.708;50.190;2024-01-30T12:25:39;7.25;;;2.42;;
54121;SDS011;40029;58.708;50.190;2024-01-30T12:28:11;7.78;;;2.70;;
54121;SDS011;40029;58.708;50.190;2024-01-30T12:30:42;5.05;;;1.85;;
54121;SDS011;40029;58.708;50.190;2024-01-30T12:33:16;16.52;;;2.72;;
54121;SDS011;40029;58.708;50.190;2024-01-30T12:35:51;7.65;;;1.85;;
54121;SDS011;40029;58.708;50.190;2024-01-30T12:38:23;9.15;;;1.63;;
54121;SDS011;40029;58.708;50.190;2024-01-30T12:40:55;5.60;;;1.55;;
54121;SDS011;40029;58.708;50.190;2024-01-30T12:43:45;8.15;;;2.20;;
54121;SDS011;40029;58.708;50.190;2024-01-30T12:46:18;3.17;;;1.58;;
54121;SDS011;40029;58.708;50.190;2024-01-30T12:48:49;4.90;;;1.45;;
54121;SDS011;40029;58.708;50.190;2024-01-30T12:51:20;9.85;;;2.08;;
54121;SDS011;40029;58.708;50.190;2024-01-30T12:53:52;5.00;;;1.63;;
54121;SDS011;40029;58.708;50.190;2024-01-30T12:56:23;6.30;;;2.67;;
54121;SDS011;40029;58.708;50.190;2024-01-30T12:58:54;13.02;;;4.68;;
54121;SDS011;40029;58.708;50.190;2024-01-30T13:01:26;26.90;;;8.63;;
54121;SDS011;40029;58.708;50.190;2024-01-30T13:03:57;37.20;;;10.00;;
54121;SDS011;40029;58.708;50.190;2024-01-30T13:06:29;24.98;;;8.57;;
54121;SDS011;40029;58.708;50.190;2024-01-30T13:09:00;19.10;;;7.13;;
54121;SDS011;40029;58.708;50.190;2024-01-30T13:11:31;11.15;;;3.65;;
54121;SDS011;40029;58.708;50.190;2024-01-30T13:14:03;7.68;;;2.75;;
54121;SDS011;40029;58.708;50.190;2024-01-30T13:16:52;12.60;;;4.63;;
54121;SDS011;40029;58.708;50.190;2024-01-30T13:19:24;27.95;;;8.38;;
54121;SDS011;40029;58.708;50.190;2024-01-30T13:21:55;13.25;;;5.68;;
54121;SDS011;40029;58.708;50.190;2024-01-30T13:24:45;13.05;;;4.40;;
54121;SDS011;40029;58.708;50.190;2024-01-30T13:27:16;3.42;;;1.40;;
54121;SDS011;40029;58.708;50.190;2024-01-30T13:29:48;5.20;;;2.08;;
54121;SDS011;40029;58.708;50.190;2024-01-30T13:32:19;10.27;;;2.13;;
54121;SDS011;40029;58.708;50.190;2024-01-30T13:34:50;9.35;;;1.42;;
54121;SDS011;40029;58.708;50.190;2024-01-30T13:37:22;9.00;;;2.95;;
54121;SDS011;40029;58.708;50.190;2024-01-30T13:39:53;6.03;;;1.80;;
54121;SDS011;40029;58.708;50.190;2024-01-30T13:42:25;4.28;;;2.60;;
54121;SDS011;40029;58.708;50.190;2024-01-30T13:45:15;6.53;;;3.13;;
54121;SDS011;40029;58.708;50.190;2024-01-30T13:47:46;8.85;;;2.00;;
54121;SDS011;40029;58.708;50.190;2024-01-30T13:50:17;8.57;;;3.08;;
54121;SDS011;40029;58.708;50.190;2024-01-30T13:52:48;26.38;;;7.95;;
54121;SDS011;40029;58.708;50.190;2024-01-30T13:55:19;13.55;;;3.55;;
54121;SDS011;40029;58.708;50.190;2024-01-30T13:57:50;3.58;;;2.05;;
54121;SDS011;40029;58.708;50.190;2024-01-30T14:00:22;16.08;;;4.07;;
54121;SDS011;40029;58.708;50.190;2024-01-30T14:02:53;7.25;;;2.30;;
54121;SDS011;40029;58.708;50.190;2024-01-30T14:05:26;5.32;;;2.00;;
54121;SDS011;40029;58.708;50.190;2024-01-30T14:08:00;22.65;;;6.95;;
54121;SDS011;40029;58.708;50.190;2024-01-30T14:10:31;11.45;;;2.67;;
54121;SDS011;40029;58.708;50.190;2024-01-30T14:13:02;13.68;;;3.67;;
54121;SDS011;40029;58.708;50.190;2024-01-30T14:15:34;24.45;;;7.22;;
54121;SDS011;40029;58.708;50.190;2024-01-30T14:18:05;13.65;;;3.25;;
54121;SDS011;40029;58.708;50.190;2024-01-30T14:20:39;16.17;;;5.70;;
54121;SDS011;40029;58.708;50.190;2024-01-30T14:23:10;17.30;;;5.78;;
54121;SDS011;40029;58.708;50.190;2024-01-30T14:25:41;10.85;;;5.25;;
54121;SDS011;40029;58.708;50.190;2024-01-30T14:28:13;17.52;;;3.78;;
54121;SDS011;40029;58.708;50.190;2024-01-30T14:30:44;11.50;;;4.97;;
54121;SDS011;40029;58.708;50.190;2024-01-30T14:33:15;10.55;;;4.40;;
54121;SDS011;40029;58.708;50.190;2024-01-30T14:35:46;11.43;;;3.08;;
54121;SDS011;40029;58.708;50.190;2024-01-30T14:38:35;17.48;;;6.35;;
54121;SDS011;40029;58.708;50.190;2024-01-30T14:41:06;11.60;;;4.60;;
54121;SDS011;40029;58.708;50.190;2024-01-30T14:43:37;8.60;;;1.52;;
54121;SDS011;40029;58.708;50.190;2024-01-30T14:46:08;19.70;;;6.47;;
54121;SDS011;40029;58.708;50.190;2024-01-30T14:48:40;29.55;;;9.00;;
54121;SDS011;40029;58.708;50.190;2024-01-30T14:51:11;14.25;;;5.40;;
54121;SDS011;40029;58.708;50.190;2024-01-30T14:53:42;18.17;;;4.38;;
54121;SDS011;40029;58.708;50.190;2024-01-30T14:56:14;5.43;;;2.00;;
54121;SDS011;40029;58.708;50.190;2024-01-30T14:58:45;5.57;;;1.85;;
54121;SDS011;40029;58.708;50.190;2024-01-30T15:01:16;4.85;;;2.05;;
54121;SDS011;40029;58.708;50.190;2024-01-30T15:03:49;7.57;;;1.20;;